Time;durP1;ratioP1;P1;durP2;ratioP2;P2;SDS_P1;SDS_P2;PMS_P1;PMS_P2;Temp;Humidity;BMP_temperature;BMP_pressure;BME280_temperature;BME280_humidity;BME280_pressure;Samples;Min_cycle;Max_cycle;Signal;HPM_P1;HPM_P2
2023/08/19 00:00:56;;;;;;;;;;;;;;;26.92;58.55;100210.13;4956650;28;7092;-70
2023/08/19 00:03:22;;;;;;;;;;;;;;;26.86;59.00;100205.84;4974010;28;7023;-72
2023/08/19 00:05:47;;;;;;;;;;;;;;;26.78;59.00;100195.50;4978681;28;6889;-69
2023/08/19 00:08:13;;;;;;;;;;;;;;;26.71;59.03;100202.66;4938014;28;6787;-70
2023/08/19 00:10:40;;;;;;;;;;;;;;;26.63;59.30;100207.22;4958764;28;6788;-71
2023/08/19 00:13:05;;;;;;;;;;;;;;;26.58;59.34;100198.59;4960066;28;6820;-70
2023/08/19 00:15:31;;;;;;;;;;;;;;;26.53;59.27;100200.44;4956223;28;7308;-70
2023/08/19 00:17:57;;;;;;;;;;;;;;;26.45;59.52;100196.19;4960678;28;7078;-70
2023/08/19 00:20:26;;;;;;;;;;;;;;;26.40;59.66;100191.94;4975071;28;6992;-69
2023/08/19 00:22:51;;;;;;;;;;;;;;;26.34;59.83;100195.56;4957177;28;6811;-71
2023/08/19 00:25:17;;;;;;;;;;;;;;;26.28;59.95;100191.31;4956869;28;6820;-69
2023/08/19 00:27:42;;;;;;;;;;;;;;;26.25;60.08;100204.53;4943785;28;7105;-70
2023/08/19 00:30:08;;;;;;;;;;;;;;;26.21;60.15;100189.69;4961037;28;6800;-68
2023/08/19 00:32:33;;;;;;;;;;;;;;;26.20;60.40;100196.72;4953908;28;6967;-69
2023/08/19 00:34:59;;;;;;;;;;;;;;;26.20;60.71;100195.84;4973154;28;6803;-69
2023/08/19 00:37:24;;;;;;;;;;;;;;;26.19;60.56;100192.38;4974871;28;6970;-69
2023/08/19 00:39:50;;;;;;;;;;;;;;;26.20;60.91;100194.09;4953065;28;6799;-69
2023/08/19 00:42:15;;;;;;;;;;;;;;;26.23;60.79;100194.94;4959172;28;6784;-69
2023/08/19 00:44:41;;;;;;;;;;;;;;;26.24;60.70;100197.53;4957805;28;6788;-70
2023/08/19 00:47:06;;;;;;;;;;;;;;;26.26;60.57;100194.84;4957332;28;6788;-69
2023/08/19 00:49:32;;;;;;;;;;;;;;;26.28;60.80;100199.19;4945899;28;7097;-70
2023/08/19 00:52:00;;;;;;;;;;;;;;;26.29;61.05;100194.81;4958919;28;6863;-69
2023/08/19 00:54:26;;;;;;;;;;;;;;;26.29;60.90;100198.28;4938054;28;7018;-71
2023/08/19 00:56:51;;;;;;;;;;;;;;;26.29;60.66;100190.41;4978905;28;7229;-69
2023/08/19 00:59:17;;;;;;;;;;;;;;;26.28;60.41;100193.09;4964272;28;7288;-69
2023/08/19 01:01:43;;;;;;;;;;;;;;;26.27;60.50;100193.97;4976727;28;7099;-69
2023/08/19 01:04:08;;;;;;;;;;;;;;;26.27;60.21;100186.06;4943433;28;7273;-69
2023/08/19 01:06:47;;;;;;;;;;;;;;;26.27;60.46;100191.34;4971611;28;6864;-69
2023/08/19 01:09:16;;;;;;;;;;;;;;;26.29;60.70;100190.41;4974662;28;7038;-69
2023/08/19 01:11:54;;;;;;;;;;;;;;;26.31;60.54;100190.38;4958778;28;7128;-69
2023/08/19 01:14:41;;;;;;;;;;;;;;;26.35;60.55;100192.03;4957068;28;8200;-72
2023/08/19 01:17:10;;;;;;;;;;;;;;;26.37;60.63;100190.28;4958078;28;6812;-69
2023/08/19 01:19:38;;;;;;;;;;;;;;;26.42;60.38;100191.03;4939104;28;6808;-71
2023/08/19 01:22:05;;;;;;;;;;;;;;;26.45;60.31;100196.19;4944644;28;7034;-70
2023/08/19 01:24:36;;;;;;;;;;;;;;;26.50;60.07;100190.00;4940721;28;7270;-69
2023/08/19 01:27:03;;;;;;;;;;;;;;;26.54;60.14;100189.03;4976278;28;6832;-68
2023/08/19 01:29:28;;;;;;;;;;;;;;;26.56;60.28;100187.25;4944333;28;6792;-69
2023/08/19 01:31:54;;;;;;;;;;;;;;;26.59;59.93;100185.41;4958802;28;6776;-69
2023/08/19 01:34:21;;;;;;;;;;;;;;;26.62;60.24;100187.97;4953068;28;6856;-69
2023/08/19 01:36:52;;;;;;;;;;;;;;;26.64;59.94;100180.03;4968938;28;7214;-70
2023/08/19 01:39:22;;;;;;;;;;;;;;;26.67;59.84;100182.63;4952265;28;7324;-70
2023/08/19 01:41:49;;;;;;;;;;;;;;;26.69;60.03;100174.69;4975881;28;6950;-71
2023/08/19 01:44:15;;;;;;;;;;;;;;;26.69;59.50;100183.44;4941879;28;6970;-71
2023/08/19 01:46:40;;;;;;;;;;;;;;;26.72;59.73;100182.50;4958365;28;7019;-70
2023/08/19 01:49:05;;;;;;;;;;;;;;;26.72;59.51;100174.63;4955787;28;6856;-70
2023/08/19 01:51:31;;;;;;;;;;;;;;;26.73;59.43;100178.97;4959525;28;6788;-70
2023/08/19 01:53:56;;;;;;;;;;;;;;;26.73;59.28;100173.72;4953003;28;6784;-71
2023/08/19 01:56:23;;;;;;;;;;;;;;;26.74;59.07;100172.81;4974822;28;7280;-69
2023/08/19 01:58:48;;;;;;;;;;;;;;;26.74;59.27;100173.66;4958668;28;6968;-69
2023/08/19 02:01:13;;;;;;;;;;;;;;;26.74;59.17;100165.78;4958224;28;6807;-69
2023/08/19 02:03:39;;;;;;;;;;;;;;;26.76;59.10;100177.16;4971988;28;6888;-68
2023/08/19 02:06:05;;;;;;;;;;;;;;;26.76;58.95;100171.03;4957971;28;6776;-69
2023/08/19 02:08:30;;;;;;;;;;;;;;;26.75;59.30;100167.53;4970112;28;6811;-70
2023/08/19 02:10:55;;;;;;;;;;;;;;;26.75;59.16;100162.28;4958416;28;6788;-70
2023/08/19 02:13:21;;;;;;;;;;;;;;;26.74;58.98;100151.78;4956704;28;6804;-70
2023/08/19 02:15:46;;;;;;;;;;;;;;;26.73;59.04;100147.44;4936708;28;8464;-69
2023/08/19 02:18:12;;;;;;;;;;;;;;;26.72;58.92;100141.31;4977062;28;7086;-71
2023/08/19 02:20:37;;;;;;;;;;;;;;;26.72;59.23;100141.31;4962518;28;6779;-69
2023/08/19 02:23:03;;;;;;;;;;;;;;;26.72;59.25;100141.31;4972291;28;7152;-69
2023/08/19 02:25:29;;;;;;;;;;;;;;;26.73;58.84;100145.66;4944482;28;6815;-71
2023/08/19 02:27:54;;;;;;;;;;;;;;;26.73;59.23;100148.28;4960143;28;6841;-71
2023/08/19 02:30:20;;;;;;;;;;;;;;;26.77;58.97;100149.09;4976170;28;6919;-70
2023/08/19 02:32:51;;;;;;;;;;;;;;;26.78;58.79;100152.59;4943083;28;7254;-69
2023/08/19 02:35:17;;;;;;;;;;;;;;;26.79;58.98;100149.91;4964089;28;7272;-73
2023/08/19 02:37:43;;;;;;;;;;;;;;;26.79;58.59;100141.19;4952887;28;6885;-74
2023/08/19 02:40:09;;;;;;;;;;;;;;;26.80;58.63;100140.28;4947669;28;6963;-74
2023/08/19 02:42:35;;;;;;;;;;;;;;;26.80;58.58;100135.00;4961837;28;8246;-72
2023/08/19 02:45:00;;;;;;;;;;;;;;;26.81;58.60;100139.38;4966652;28;6869;-72
2023/08/19 02:47:26;;;;;;;;;;;;;;;26.81;58.49;100134.09;4981622;28;6983;-74
2023/08/19 02:49:51;;;;;;;;;;;;;;;26.82;58.69;100133.22;4977556;28;6788;-75
2023/08/19 02:52:17;;;;;;;;;;;;;;;26.83;58.39;100130.56;4963899;28;7183;-75
2023/08/19 02:54:42;;;;;;;;;;;;;;;26.83;58.45;100133.19;4958841;28;6776;-75
2023/08/19 02:57:08;;;;;;;;;;;;;;;26.85;58.47;100135.78;4964965;28;6788;-75
2023/08/19 02:59:33;;;;;;;;;;;;;;;26.85;58.11;100131.38;4949687;28;6940;-75
2023/08/19 03:01:59;;;;;;;;;;;;;;;26.86;58.16;100137.50;4966120;28;7572;-75
2023/08/19 03:04:24;;;;;;;;;;;;;;;26.88;58.03;100135.72;4959419;28;7194;-75
2023/08/19 03:06:50;;;;;;;;;;;;;;;26.88;58.01;100136.56;4976168;28;6990;-76
2023/08/19 03:09:15;;;;;;;;;;;;;;;26.89;58.14;100132.19;4963532;28;6780;-76
2023/08/19 03:11:41;;;;;;;;;;;;;;;26.89;58.33;100132.19;4952845;28;7181;-76
2023/08/19 03:14:07;;;;;;;;;;;;;;;26.88;57.92;100133.09;4963855;28;7164;-74
2023/08/19 03:16:32;;;;;;;;;;;;;;;26.85;58.02;100133.16;4945581;28;7302;-74
2023/08/19 03:18:58;;;;;;;;;;;;;;;26.83;58.08;100129.66;4960745;28;7235;-74
2023/08/19 03:21:23;;;;;;;;;;;;;;;26.78;58.04;100137.66;4959873;28;7971;-73
2023/08/19 03:23:49;;;;;;;;;;;;;;;26.71;57.85;100126.44;4976424;28;6788;-74
2023/08/19 03:26:14;;;;;;;;;;;;;;;26.67;58.30;100122.16;4971649;28;6784;-74
2023/08/19 03:28:39;;;;;;;;;;;;;;;26.61;58.36;100127.56;4960023;28;7280;-74
2023/08/19 03:31:09;;;;;;;;;;;;;;;26.57;58.40;100120.66;4968122;28;6985;-71
2023/08/19 03:33:34;;;;;;;;;;;;;;;26.52;58.51;100119.88;4961760;28;6865;-72
2023/08/19 03:36:00;;;;;;;;;;;;;;;26.48;58.31;100122.59;4944255;28;6961;-74
2023/08/19 03:38:26;;;;;;;;;;;;;;;26.44;58.35;100113.03;4945565;28;6823;-72
2023/08/19 03:40:52;;;;;;;;;;;;;;;26.43;58.51;100113.09;4973849;28;7098;-72
2023/08/19 03:43:17;;;;;;;;;;;;;;;26.42;58.71;100114.84;4963008;28;6783;-73
2023/08/19 03:45:43;;;;;;;;;;;;;;;26.41;58.74;100114.88;4981813;28;6884;-72
2023/08/19 03:48:08;;;;;;;;;;;;;;;26.40;58.55;100115.75;4964585;28;7333;-72
2023/08/19 03:50:34;;;;;;;;;;;;;;;26.41;58.57;100120.13;4961705;28;6807;-72
2023/08/19 03:52:59;;;;;;;;;;;;;;;26.41;58.56;100121.00;4960768;28;6811;-73
2023/08/19 03:55:25;;;;;;;;;;;;;;;26.40;58.87;100119.28;4978495;28;7419;-72
2023/08/19 03:57:51;;;;;;;;;;;;;;;26.39;58.51;100122.78;4961616;28;6804;-72
2023/08/19 04:00:16;;;;;;;;;;;;;;;26.39;58.68;100119.28;4963214;28;6807;-73
2023/08/19 04:02:42;;;;;;;;;;;;;;;26.41;58.63;100120.13;4967145;28;6929;-73
2023/08/19 04:05:10;;;;;;;;;;;;;;;26.41;58.37;100121.00;4963528;28;6800;-73
2023/08/19 04:07:36;;;;;;;;;;;;;;;26.41;58.86;100126.25;4959116;28;7007;-72
2023/08/19 04:10:01;;;;;;;;;;;;;;;26.41;58.54;100131.50;4962230;28;7004;-72
2023/08/19 04:12:27;;;;;;;;;;;;;;;26.42;58.57;100132.38;4959542;28;7101;-72
2023/08/19 04:14:52;;;;;;;;;;;;;;;26.43;58.31;100129.69;4976180;28;6788;-72
2023/08/19 04:17:18;;;;;;;;;;;;;;;26.44;58.41;100136.69;4963173;28;6940;-73
2023/08/19 04:19:44;;;;;;;;;;;;;;;26.46;58.15;100128.78;4962036;28;6796;-73
2023/08/19 04:22:15;;;;;;;;;;;;;;;26.47;58.27;100130.50;4940238;28;6970;-73
2023/08/19 04:24:40;;;;;;;;;;;;;;;26.48;58.26;100133.09;4959953;28;8363;-73
2023/08/19 04:27:06;;;;;;;;;;;;;;;26.50;58.31;100133.03;4943326;28;6996;-72
2023/08/19 04:29:34;;;;;;;;;;;;;;;26.50;58.17;100125.16;4944161;28;7877;-73
2023/08/19 04:32:01;;;;;;;;;;;;;;;26.53;58.01;100129.50;4975743;28;6970;-72
2023/08/19 04:34:27;;;;;;;;;;;;;;;26.54;57.93;100131.22;4960857;28;6911;-72
2023/08/19 04:36:52;;;;;;;;;;;;;;;26.56;58.11;100142.59;4958333;28;6776;-73
2023/08/19 04:39:18;;;;;;;;;;;;;;;26.59;57.81;100145.13;4953997;28;7580;-74
2023/08/19 04:41:43;;;;;;;;;;;;;;;26.61;57.67;100143.31;4961640;28;6799;-74
2023/08/19 04:44:09;;;;;;;;;;;;;;;26.62;57.91;100142.41;4976364;28;7167;-75
2023/08/19 04:46:35;;;;;;;;;;;;;;;26.64;57.84;100151.13;4942274;28;6784;-75
2023/08/19 04:49:00;;;;;;;;;;;;;;;26.64;57.77;100145.88;4956761;28;6795;-74
2023/08/19 04:51:26;;;;;;;;;;;;;;;26.64;57.70;100148.50;4958471;28;6907;-74
2023/08/19 04:53:52;;;;;;;;;;;;;;;26.66;57.47;100149.34;4970400;28;8320;-74
2023/08/19 04:56:18;;;;;;;;;;;;;;;26.64;57.78;100155.53;4961291;28;6803;-74
2023/08/19 04:58:43;;;;;;;;;;;;;;;26.65;57.65;100154.63;4943251;28;7147;-74
2023/08/19 05:01:08;;;;;;;;;;;;;;;26.67;58.05;100164.22;4956327;28;6847;-73
2023/08/19 05:03:34;;;;;;;;;;;;;;;26.68;57.59;100154.56;4956724;28;6815;-72
2023/08/19 05:06:00;;;;;;;;;;;;;;;26.70;57.65;100158.88;4965221;28;6879;-72
2023/08/19 05:08:26;;;;;;;;;;;;;;;26.71;57.38;100151.88;4958021;28;7196;-71
2023/08/19 05:10:51;;;;;;;;;;;;;;;26.73;57.52;100152.69;4974262;28;6961;-72
2023/08/19 05:13:17;;;;;;;;;;;;;;;26.74;57.29;100159.69;4960054;28;7197;-72
2023/08/19 05:15:42;;;;;;;;;;;;;;;26.75;57.65;100153.53;4977799;28;6796;-72
2023/08/19 05:18:08;;;;;;;;;;;;;;;26.76;57.59;100158.75;4957262;28;7599;-73
2023/08/19 05:20:33;;;;;;;;;;;;;;;26.76;57.30;100152.63;4977257;28;7009;-72
2023/08/19 05:22:58;;;;;;;;;;;;;;;26.78;57.53;100165.75;4957350;28;9985;-72
2023/08/19 05:25:24;;;;;;;;;;;;;;;26.78;57.32;100160.47;4976475;28;6815;-72
2023/08/19 05:27:49;;;;;;;;;;;;;;;26.78;57.65;100160.47;4961211;28;6819;-72
2023/08/19 05:30:15;;;;;;;;;;;;;;;26.78;57.32;100150.81;4958632;28;7699;-72
2023/08/19 05:32:40;;;;;;;;;;;;;;;26.82;57.61;100163.00;4960235;28;6792;-72
2023/08/19 05:35:06;;;;;;;;;;;;;;;26.82;57.54;100160.38;4956050;28;6871;-72
2023/08/19 05:37:32;;;;;;;;;;;;;;;26.84;56.99;100161.19;4961354;28;6910;-72
2023/08/19 05:39:57;;;;;;;;;;;;;;;26.86;57.33;100162.00;4955909;28;6791;-72
2023/08/19 05:42:23;;;;;;;;;;;;;;;26.88;57.06;100168.13;4961997;28;7125;-72
2023/08/19 05:44:48;;;;;;;;;;;;;;;26.91;57.51;100172.44;4961561;28;6792;-72
2023/08/19 05:47:15;;;;;;;;;;;;;;;26.95;57.28;100170.63;4951883;28;7286;-72
2023/08/19 05:49:40;;;;;;;;;;;;;;;26.97;57.47;100172.31;4977418;28;6975;-72
2023/08/19 05:52:06;;;;;;;;;;;;;;;27.01;57.30;100173.97;4962382;28;7409;-72
2023/08/19 05:54:31;;;;;;;;;;;;;;;27.04;57.36;100183.53;4969596;28;7134;-73
2023/08/19 05:56:56;;;;;;;;;;;;;;;27.07;57.19;100180.00;4941857;28;6942;-72
2023/08/19 05:59:22;;;;;;;;;;;;;;;27.12;57.20;100184.22;4943002;28;6989;-72
2023/08/19 06:01:47;;;;;;;;;;;;;;;27.16;57.42;100183.25;4955662;28;7157;-72
2023/08/19 06:04:15;;;;;;;;;;;;;;;27.22;57.01;100186.63;4971545;28;7233;-72
2023/08/19 06:06:41;;;;;;;;;;;;;;;27.27;57.31;100190.88;4946896;28;6995;-72
2023/08/19 06:09:07;;;;;;;;;;;;;;;27.33;57.39;100195.13;4981425;28;7406;-72
2023/08/19 06:11:32;;;;;;;;;;;;;;;27.39;57.20;100189.72;4971311;28;6976;-72
2023/08/19 06:13:58;;;;;;;;;;;;;;;27.47;56.76;100202.66;4976718;28;6792;-72
2023/08/19 06:16:24;;;;;;;;;;;;;;;27.53;56.95;100206.91;4964439;28;6776;-72
2023/08/19 06:18:50;;;;;;;;;;;;;;;27.61;56.87;100204.09;4964109;28;6796;-72
2023/08/19 06:21:15;;;;;;;;;;;;;;;27.68;56.75;100195.13;4959995;28;7010;-72
2023/08/19 06:23:41;;;;;;;;;;;;;;;27.76;56.93;100194.94;4977710;28;6772;-72
2023/08/19 06:26:06;;;;;;;;;;;;;;;27.86;57.15;100199.03;4972300;28;7694;-73
2023/08/19 06:28:32;;;;;;;;;;;;;;;27.96;57.36;100197.03;4976016;28;7236;-73
2023/08/19 06:30:58;;;;;;;;;;;;;;;28.06;56.49;100193.22;4961838;28;7039;-73
2023/08/19 06:33:23;;;;;;;;;;;;;;;28.18;56.70;100199.03;4976903;28;6923;-72
2023/08/19 06:35:49;;;;;;;;;;;;;;;28.33;56.92;100196.00;4962150;28;6776;-72
2023/08/19 06:38:17;;;;;;;;;;;;;;;28.47;57.05;100190.34;4976760;28;7070;-72
2023/08/19 06:40:55;;;;;;;;;;;;;;;28.64;57.06;100192.44;4964981;28;7288;-72
2023/08/19 06:43:22;;;;;;;;;;;;;;;28.81;56.16;100191.06;4941984;28;6847;-72
2023/08/19 06:45:47;;;;;;;;;;;;;;;28.96;56.95;100189.75;4977736;28;6998;-72
2023/08/19 06:48:16;;;;;;;;;;;;;;;29.09;55.98;100192.84;4962621;28;7064;-72
2023/08/19 06:50:42;;;;;;;;;;;;;;;29.23;56.09;100192.41;4947232;28;7011;-73
2023/08/19 06:53:10;;;;;;;;;;;;;;;29.39;55.82;100195.38;4977259;28;6929;-72
2023/08/19 06:55:40;;;;;;;;;;;;;;;29.58;55.85;100198.25;4955597;28;6997;-72
2023/08/19 06:58:16;;;;;;;;;;;;;;;29.78;56.10;100200.22;4948352;28;7729;-72
2023/08/19 07:00:41;;;;;;;;;;;;;;;29.98;56.24;100193.34;4963483;28;7183;-72
2023/08/19 07:03:07;;;;;;;;;;;;;;;30.16;56.08;100197.13;4958873;28;6796;-73
2023/08/19 07:05:34;;;;;;;;;;;;;;;30.34;55.46;100194.72;4962665;28;7025;-72
2023/08/19 07:08:03;;;;;;;;;;;;;;;30.48;54.95;100196.81;4939435;28;8212;-72
2023/08/19 07:10:29;;;;;;;;;;;;;;;30.56;54.38;100194.75;4939511;28;6792;-72
2023/08/19 07:12:55;;;;;;;;;;;;;;;30.61;53.94;100200.72;4964875;28;9085;-72
2023/08/19 07:15:21;;;;;;;;;;;;;;;30.62;54.03;100209.50;4961634;28;6839;-72
2023/08/19 07:17:48;;;;;;;;;;;;;;;30.60;53.38;100209.56;4963786;28;6800;-72
2023/08/19 07:20:21;;;;;;;;;;;;;;;30.57;53.25;100220.25;4938739;28;7274;-72
2023/08/19 07:22:48;;;;;;;;;;;;;;;30.54;53.95;100217.75;4944378;28;6807;-72
2023/08/19 07:25:14;;;;;;;;;;;;;;;30.50;53.11;100218.78;4959809;28;7508;-72
2023/08/19 07:27:42;;;;;;;;;;;;;;;30.50;53.08;100221.41;4956148;28;7067;-72
2023/08/19 07:30:08;;;;;;;;;;;;;;;30.50;53.30;100224.06;4981851;28;7104;-72
2023/08/19 07:32:36;;;;;;;;;;;;;;;30.53;53.53;100229.25;4973277;28;6859;-72
2023/08/19 07:35:03;;;;;;;;;;;;;;;30.60;53.42;100237.81;4946352;28;7031;-72
2023/08/19 07:37:29;;;;;;;;;;;;;;;30.67;53.49;100243.75;4945428;28;6972;-72
2023/08/19 07:39:56;;;;;;;;;;;;;;;30.78;54.29;100246.81;4960939;28;6994;-72
2023/08/19 07:42:22;;;;;;;;;;;;;;;30.88;53.40;100253.47;4962468;28;6805;-72
2023/08/19 07:44:47;;;;;;;;;;;;;;;31.03;53.59;100253.81;4982031;28;7036;-72
2023/08/19 07:47:12;;;;;;;;;;;;;;;31.17;53.31;100254.09;4959900;28;7301;-72
2023/08/19 07:49:38;;;;;;;;;;;;;;;31.31;52.17;100253.56;4963298;28;6808;-72
2023/08/19 07:52:04;;;;;;;;;;;;;;;31.45;51.26;100258.28;4962121;28;6795;-71
2023/08/19 07:54:30;;;;;;;;;;;;;;;31.60;50.46;100263.88;4948407;28;7144;-71
2023/08/19 07:56:57;;;;;;;;;;;;;;;31.72;50.31;100260.69;4979429;28;6858;-71
2023/08/19 07:59:24;;;;;;;;;;;;;;;31.88;49.52;100253.91;4961515;28;6986;-71
2023/08/19 08:01:49;;;;;;;;;;;;;;;32.02;48.60;100255.94;4951419;28;7347;-71
2023/08/19 08:04:15;;;;;;;;;;;;;;;32.17;48.26;100257.91;4977695;28;7395;-71
2023/08/19 08:06:40;;;;;;;;;;;;;;;32.34;47.42;100261.56;4981297;28;7798;-70
2023/08/19 08:09:06;;;;;;;;;;;;;;;32.52;46.83;100267.88;4977164;28;6780;-71
2023/08/19 08:11:31;;;;;;;;;;;;;;;32.67;46.68;100259.19;4975626;28;6855;-71
2023/08/19 08:13:57;;;;;;;;;;;;;;;32.87;46.66;100260.03;4963591;28;6803;-71
2023/08/19 08:16:22;;;;;;;;;;;;;;;33.06;46.47;100259.16;4959017;28;6855;-72
2023/08/19 08:18:48;;;;;;;;;;;;;;;33.22;45.67;100265.44;4963993;28;6963;-71
2023/08/19 08:21:14;;;;;;;;;;;;;;;33.37;45.75;100263.00;4972731;28;6793;-71
2023/08/19 08:23:40;;;;;;;;;;;;;;;33.47;44.51;100264.28;4953200;28;7202;-71
2023/08/19 08:26:06;;;;;;;;;;;;;;;33.57;44.53;100264.66;4942323;28;6965;-71
2023/08/19 08:28:31;;;;;;;;;;;;;;;33.71;44.26;100271.06;4976989;28;6799;-71
2023/08/19 08:30:57;;;;;;;;;;;;;;;33.84;44.16;100276.59;4955934;28;6803;-72
2023/08/19 08:33:22;;;;;;;;;;;;;;;33.91;43.21;100284.19;4954243;28;6963;-71
2023/08/19 08:35:48;;;;;;;;;;;;;;;33.99;42.48;100290.88;4945768;28;6970;-71
2023/08/19 08:38:13;;;;;;;;;;;;;;;34.05;42.31;100285.28;4960435;28;6953;-72
2023/08/19 08:40:40;;;;;;;;;;;;;;;34.12;41.84;100286.69;4961625;28;6958;-71
2023/08/19 08:43:06;;;;;;;;;;;;;;;34.23;42.15;100298.53;4933893;28;7646;-72
2023/08/19 08:45:32;;;;;;;;;;;;;;;34.36;42.66;100302.25;4943541;28;6876;-72
2023/08/19 08:48:00;;;;;;;;;;;;;;;34.51;42.71;100297.06;4973258;28;6804;-72
2023/08/19 08:50:26;;;;;;;;;;;;;;;34.63;42.82;100307.06;4975042;28;6999;-71
2023/08/19 08:52:54;;;;;;;;;;;;;;;34.73;42.02;100312.75;4942604;28;6812;-71
2023/08/19 08:55:20;;;;;;;;;;;;;;;34.80;42.06;100318.56;4972879;28;7187;-72
2023/08/19 08:57:45;;;;;;;;;;;;;;;34.79;42.26;100324.84;4980956;28;7237;-71
2023/08/19 09:00:12;;;;;;;;;;;;;;;34.77;42.36;100335.56;4961190;28;6859;-71
2023/08/19 09:02:43;;;;;;;;;;;;;;;34.73;41.89;100339.34;4961309;28;6888;-70
2023/08/19 09:05:09;;;;;;;;;;;;;;;34.65;42.06;100346.88;4960017;28;7445;-71
2023/08/19 09:07:39;;;;;;;;;;;;;;;34.56;42.10;100348.22;4949840;28;6840;-72
2023/08/19 09:10:15;;;;;;;;;;;;;;;34.46;42.42;100350.50;4944289;28;7154;-71
2023/08/19 09:12:53;;;;;;;;;;;;;;;34.36;42.01;100350.13;4973708;28;6833;-71
2023/08/19 09:15:19;;;;;;;;;;;;;;;34.26;42.15;100356.88;4973560;28;6988;-72
2023/08/19 09:17:44;;;;;;;;;;;;;;;34.18;42.28;100352.81;4954358;28;8327;-70
2023/08/19 09:20:12;;;;;;;;;;;;;;;34.13;42.22;100360.19;4976222;28;6788;-71
2023/08/19 09:22:41;;;;;;;;;;;;;;;34.12;42.86;100360.25;4959893;28;6792;-70
2023/08/19 09:25:11;;;;;;;;;;;;;;;34.10;43.04;100368.31;4940183;28;7322;-71
2023/08/19 09:27:37;;;;;;;;;;;;;;;34.06;42.87;100367.63;4958879;28;6863;-71
2023/08/19 09:30:02;;;;;;;;;;;;;;;34.01;42.94;100366.13;4958607;28;6844;-71
2023/08/19 09:32:35;;;;;;;;;;;;;;;33.93;42.81;100371.78;4961590;28;7700;-71
2023/08/19 09:35:04;;;;;;;;;;;;;;;33.79;42.53;100377.81;4958930;28;7081;-71
2023/08/19 09:37:31;;;;;;;;;;;;;;;33.60;43.62;100376.06;4937196;28;6816;-72
2023/08/19 09:39:56;;;;;;;;;;;;;;;33.40;44.15;100379.69;4941190;28;7233;-71
2023/08/19 09:42:22;;;;;;;;;;;;;;;33.20;44.21;100397.41;4954929;28;6876;-71
2023/08/19 09:44:47;;;;;;;;;;;;;;;33.03;44.34;100402.66;4957734;28;6788;-71
2023/08/19 09:47:13;;;;;;;;;;;;;;;32.88;44.09;100404.19;4958284;28;6823;-71
2023/08/19 09:49:38;;;;;;;;;;;;;;;32.79;44.26;100403.69;4974769;28;7408;-72
2023/08/19 09:52:04;;;;;;;;;;;;;;;32.74;44.70;100405.69;4957513;28;6856;-71
2023/08/19 09:54:30;;;;;;;;;;;;;;;32.74;44.50;100402.16;4960279;28;7051;-71
2023/08/19 09:56:57;;;;;;;;;;;;;;;32.76;44.88;100402.94;4962093;28;6939;-71
2023/08/19 09:59:23;;;;;;;;;;;;;;;32.79;44.70;100395.72;4944441;28;6991;-70
2023/08/19 10:01:50;;;;;;;;;;;;;;;32.83;44.81;100401.75;4974742;28;7075;-73
2023/08/19 10:04:16;;;;;;;;;;;;;;;32.86;44.82;100400.75;4943341;28;6792;-73
2023/08/19 10:06:47;;;;;;;;;;;;;;;32.90;45.01;100397.88;4961907;28;8076;-72
2023/08/19 10:09:15;;;;;;;;;;;;;;;32.94;45.13;100401.31;4975321;28;6876;-72
2023/08/19 10:11:43;;;;;;;;;;;;;;;32.99;45.42;100409.03;4960879;28;7249;-72
2023/08/19 10:14:11;;;;;;;;;;;;;;;33.05;45.48;100400.78;4960101;28;7080;-72
2023/08/19 10:16:44;;;;;;;;;;;;;;;33.14;45.43;100410.13;4973399;28;6795;-73
2023/08/19 10:19:17;;;;;;;;;;;;;;;33.20;45.50;100409.81;4960312;28;6995;-73
2023/08/19 10:21:43;;;;;;;;;;;;;;;33.31;45.47;100406.66;4959715;28;6808;-72
2023/08/19 10:24:09;;;;;;;;;;;;;;;33.42;45.31;100412.31;4976132;28;6800;-72
2023/08/19 10:26:35;;;;;;;;;;;;;;;33.55;45.48;100409.97;4958621;28;7027;-73
2023/08/19 10:29:06;;;;;;;;;;;;;;;33.66;45.69;100418.28;4940483;28;7283;-73
2023/08/19 10:31:33;;;;;;;;;;;;;;;33.76;45.74;100410.72;4955818;28;6860;-72
2023/08/19 10:33:58;;;;;;;;;;;;;;;33.85;45.50;100416.50;4943078;28;6844;-73
2023/08/19 10:36:30;;;;;;;;;;;;;;;33.94;45.45;100422.22;4939124;28;6856;-72
2023/08/19 10:38:58;;;;;;;;;;;;;;;34.00;45.66;100428.22;4959534;28;6823;-73
2023/08/19 10:41:38;;;;;;;;;;;;;;;34.02;45.24;100423.69;4959632;28;6963;-72
2023/08/19 10:44:06;;;;;;;;;;;;;;;34.01;45.17;100432.59;4965887;28;6804;-73
2023/08/19 10:46:45;;;;;;;;;;;;;;;33.94;45.57;100432.84;4979910;28;6799;-73
2023/08/19 10:49:14;;;;;;;;;;;;;;;33.90;45.13;100433.97;4940022;28;6880;-72
2023/08/19 10:51:53;;;;;;;;;;;;;;;33.81;45.60;100434.41;4936763;28;7186;-73
2023/08/19 10:54:28;;;;;;;;;;;;;;;33.72;45.65;100464.09;4964462;28;6816;-71
2023/08/19 10:57:06;;;;;;;;;;;;;;;33.63;45.72;100476.88;4958402;28;6816;-73
2023/08/19 10:59:34;;;;;;;;;;;;;;;33.58;45.84;100476.22;4961173;28;6864;-72
2023/08/19 11:01:59;;;;;;;;;;;;;;;33.56;46.09;100482.53;4945052;28;6824;-73
2023/08/19 11:04:25;;;;;;;;;;;;;;;33.61;46.49;100489.38;4979377;28;7091;-73
2023/08/19 11:06:55;;;;;;;;;;;;;;;33.79;46.20;100502.69;4946489;28;6784;-72
2023/08/19 11:09:24;;;;;;;;;;;;;;;34.03;45.55;100503.31;4957818;28;6799;-72
2023/08/19 11:11:49;;;;;;;;;;;;;;;34.24;45.24;100505.00;4964173;28;6809;-72
2023/08/19 11:14:18;;;;;;;;;;;;;;;34.39;45.40;100514.88;4956481;28;7171;-72
2023/08/19 11:16:51;;;;;;;;;;;;;;;34.58;45.34;100522.81;4964214;28;6853;-73
2023/08/19 11:19:18;;;;;;;;;;;;;;;34.74;44.68;100533.50;4980892;28;6959;-73
2023/08/19 11:21:44;;;;;;;;;;;;;;;34.80;43.81;100542.97;4966955;28;6788;-73
2023/08/19 11:24:11;;;;;;;;;;;;;;;34.78;43.36;100549.34;4950028;28;6987;-72
2023/08/19 11:26:37;;;;;;;;;;;;;;;34.67;43.53;100553.41;4979601;28;6987;-72
2023/08/19 11:29:04;;;;;;;;;;;;;;;34.55;43.05;100562.00;4963610;28;7183;-72
2023/08/19 11:31:30;;;;;;;;;;;;;;;34.41;43.57;100562.66;4978664;28;6970;-72
2023/08/19 11:33:55;;;;;;;;;;;;;;;34.26;43.38;100572.28;4958222;28;6964;-72
2023/08/19 11:36:27;;;;;;;;;;;;;;;34.08;44.12;100585.50;4962907;28;6805;-73
2023/08/19 11:38:56;;;;;;;;;;;;;;;33.91;44.17;100589.84;4981869;28;6826;-72
2023/08/19 11:41:23;;;;;;;;;;;;;;;33.77;44.29;100609.09;4963770;28;7176;-73
2023/08/19 11:43:50;;;;;;;;;;;;;;;33.68;44.34;100617.47;4947008;28;6976;-72
2023/08/19 11:46:16;;;;;;;;;;;;;;;33.59;44.44;100628.53;4950378;28;6986;-72
2023/08/19 11:48:42;;;;;;;;;;;;;;;33.50;45.24;100624.47;4943364;28;6932;-72
2023/08/19 11:51:12;;;;;;;;;;;;;;;33.44;44.99;100619.41;4958697;28;6784;-72
2023/08/19 11:53:39;;;;;;;;;;;;;;;33.44;45.83;100624.72;4980807;28;7231;-72
2023/08/19 11:56:05;;;;;;;;;;;;;;;33.48;45.49;100627.22;4944060;28;7219;-72
2023/08/19 11:58:49;;;;;;;;;;;;;;;33.52;45.97;100641.22;4941289;28;6851;-72
2023/08/19 12:01:19;;;;;;;;;;;;;;;33.52;45.74;100643.88;4982969;28;6996;-72
2023/08/19 12:03:49;;;;;;;;;;;;;;;33.53;45.63;100650.91;4943894;28;6804;-72
2023/08/19 12:06:16;;;;;;;;;;;;;;;33.55;46.02;100649.06;4961522;28;7205;-71
2023/08/19 12:08:43;;;;;;;;;;;;;;;33.53;45.59;100661.53;4976101;28;7758;-72
2023/08/19 12:11:10;;;;;;;;;;;;;;;33.48;45.96;100660.88;4967226;28;6860;-72
2023/08/19 12:13:35;;;;;;;;;;;;;;;33.40;45.85;100666.50;4977166;28;6862;-71
2023/08/19 12:16:01;;;;;;;;;;;;;;;33.30;45.65;100666.03;4962840;28;6796;-71
2023/08/19 12:18:32;;;;;;;;;;;;;;;33.14;45.63;100667.63;4964305;28;6791;-71
2023/08/19 12:20:59;;;;;;;;;;;;;;;32.94;46.25;100674.66;4965895;28;6995;-71
2023/08/19 12:23:24;;;;;;;;;;;;;;;32.75;46.53;100678.03;4965580;28;7044;-72
2023/08/19 12:25:55;;;;;;;;;;;;;;;32.56;46.64;100669.94;4981018;28;6935;-71
2023/08/19 12:28:21;;;;;;;;;;;;;;;32.37;46.96;100670.69;4950013;28;7247;-71
2023/08/19 12:30:47;;;;;;;;;;;;;;;32.17;47.09;100662.59;4980985;28;6879;-72
2023/08/19 12:33:16;;;;;;;;;;;;;;;31.98;47.70;100671.25;4938918;28;7118;-71
2023/08/19 12:35:44;;;;;;;;;;;;;;;31.76;47.83;100674.69;4950266;28;6793;-71
2023/08/19 12:38:11;;;;;;;;;;;;;;;31.57;48.10;100709.78;4975937;28;7050;-71
2023/08/19 12:40:37;;;;;;;;;;;;;;;31.36;48.94;100721.13;4980979;28;7054;-71
2023/08/19 12:43:02;;;;;;;;;;;;;;;31.16;48.75;100725.28;4958807;28;6791;-69
2023/08/19 12:45:28;;;;;;;;;;;;;;;30.95;49.36;100725.03;4947397;28;8236;-70